Sunday, July 22, 2018, 10:21 AM EDT
Back to Local

KGNR, Greenville

Location: Greenville, ME, United States Lat: 45.467
Local Time: 10:21 AM EDT (14:21 GMT) Lon: -69.583
Time Zone: US/Eastern Elev: 1400 ft

Show me the last for .
Show Decoded

2018-07-22 09:56 METAR KGNR 221356Z AUTO VRB04KT 21/13 A3022 RMK AO1 SLP230 T02060133 =
2018-07-22 08:56 METAR KGNR 221256Z AUTO 14007KT 18/13 A3021 RMK AO1 SLP227 T01780128 =
2018-07-22 07:56 METAR KGNR 221156Z AUTO 14004KT 17/13 A3020 RMK AO1 SLP223 T01670128 10167 20133
                 51009 =
2018-07-22 06:56 METAR KGNR 221056Z AUTO 10006KT 16/13 A3019 RMK AO1 SLP220 T01560128 =
2018-07-22 05:56 METAR KGNR 220956Z AUTO 11003KT 14/13 A3018 RMK AO1 SLP218 T01390128 =
2018-07-22 04:56 METAR KGNR 220856Z AUTO 12004KT 14/13 A3017 RMK AO1 SLP213 T01390128 50002 =
2018-07-22 03:56 METAR KGNR 220756Z AUTO 13005KT 14/13 A3017 RMK AO1 SLP216 T01440128 =
2018-07-22 02:56 METAR KGNR 220656Z AUTO 07003KT 14/12 A3016 RMK AO1 SLP210 T01440122 =
2018-07-22 01:56 METAR KGNR 220556Z AUTO 10003KT 15/12 A3016 RMK AO1 SLP211 T01500122 10217 20144
                 58003 =
2018-07-22 00:56 METAR KGNR 220456Z AUTO 00000KT 16/13 A3016 RMK AO1 SLP212 T01560128 402610133 =
2018-07-21 23:56 METAR KGNR 220356Z AUTO 00000KT 17/13 A3018 RMK AO1 SLP216 T01670128 =
2018-07-21 22:56 METAR KGNR 220256Z AUTO 15004KT 18/13 A3017 RMK AO1 SLP215 T01780128 53006 =
2018-07-21 21:56 METAR KGNR 220156Z AUTO 13006KT 19/12 A3016 RMK AO1 SLP211 T01940122 =
2018-07-21 20:56 METAR KGNR 220056Z AUTO 00000KT 19/13 A3016 RMK AO1 SLP210 T01940128 =
2018-07-21 19:56 METAR KGNR 212356Z AUTO 00000KT 22/12 A3015 RMK AO1 SLP208 T02170122 10261 20217
                 53002 =
2018-07-21 18:56 METAR KGNR 212256Z AUTO VRB03KT 24/12 A3015 RMK AO1 SLP205 T02390117 =
2018-07-21 17:56 METAR KGNR 212156Z AUTO VRB03KT 25/11 A3014 RMK AO1 SLP203 T02500111 =
2018-07-21 16:56 METAR KGNR 212056Z AUTO VRB03KT 26/12 A3015 RMK AO1 SLP206 T02560117 56006 =
2018-07-21 15:56 METAR KGNR 211956Z AUTO 13008KT 110V180 26/11 A3015 RMK AO1 SLP207 T02560111 =
2018-07-21 14:56 METAR KGNR 211856Z AUTO 15006KT 26/11 A3016 RMK AO1 SLP209 T02560111 =
2018-07-21 13:56 METAR KGNR 211756Z AUTO 12007KT 24/12 A3016 RMK AO1 SLP212 T02440117 10250 20183
                 58009 =
2018-07-21 12:56 METAR KGNR 211656Z AUTO 13007KT 100V190 24/09 A3017 RMK AO1 SLP214 T02440094 =
2018-07-21 11:56 METAR KGNR 211556Z AUTO 11007KT 23/11 A3019 RMK AO1 SLP220 T02280106 =
2018-07-21 10:56 METAR KGNR 211456Z AUTO 13006KT 22/12 A3019 RMK AO1 SLP221 T02220117 58001 =

Support USWX by starting your Amazon purchase here.